Time;durP1;ratioP1;P1;durP2;ratioP2;P2;SDS_P1;SDS_P2;PMS_P1;PMS_P2;Temp;Humidity;BMP_temperature;BMP_pressure;BME280_temperature;BME280_humidity;BME280_pressure;Samples;Min_cycle;Max_cycle;Signal;HPM_P1;HPM_P2
2023/03/04 00:00:42;;;;;;;7.47;4.50;;;10.30;99.90;;;;;;4978943;28;20057;-92
2023/03/04 00:03:09;;;;;;;11.05;4.80;;;10.30;99.90;;;;;;4978785;28;20030;-94
2023/03/04 00:05:37;;;;;;;11.13;5.32;;;10.30;99.90;;;;;;4963331;28;20030;-92
2023/03/04 00:08:03;;;;;;;9.30;5.28;;;10.30;99.90;;;;;;4963731;28;20088;-92
2023/03/04 00:10:33;;;;;;;15.13;5.30;;;10.30;99.90;;;;;;4978468;28;20101;-91
2023/03/04 00:12:59;;;;;;;8.27;4.50;;;10.30;99.90;;;;;;4981001;28;20031;-92
2023/03/04 00:15:26;;;;;;;13.68;5.13;;;10.30;99.90;;;;;;4963205;28;20032;-92
2023/03/04 00:17:52;;;;;;;9.80;4.47;;;10.30;99.90;;;;;;4979454;28;20054;-93
2023/03/04 00:20:19;;;;;;;9.93;4.75;;;10.30;99.90;;;;;;4963547;28;20026;-92
2023/03/04 00:22:45;;;;;;;15.95;4.60;;;10.30;99.90;;;;;;4962608;28;20045;-91
2023/03/04 00:25:12;;;;;;;19.63;5.40;;;10.30;99.90;;;;;;4978463;28;20033;-92
2023/03/04 00:27:41;;;;;;;14.40;4.72;;;10.20;99.90;;;;;;4962566;28;20057;-91
2023/03/04 00:30:09;;;;;;;13.30;4.30;;;10.20;99.90;;;;;;4964006;28;20102;-91
2023/03/04 00:32:35;;;;;;;8.02;4.30;;;10.20;99.90;;;;;;4980067;28;20053;-92
2023/03/04 00:35:05;;;;;;;10.30;4.55;;;10.20;99.90;;;;;;4962216;28;20125;-92
2023/03/04 00:37:32;;;;;;;13.15;5.03;;;10.30;99.90;;;;;;4978016;28;20480;-92
2023/03/04 00:39:58;;;;;;;8.93;4.22;;;10.20;99.90;;;;;;4956051;28;20027;-92
2023/03/04 00:42:25;;;;;;;13.75;4.72;;;10.30;99.90;;;;;;4943410;28;20039;-92
2023/03/04 00:44:51;;;;;;;8.75;4.80;;;10.30;99.90;;;;;;4942920;28;20451;-92
2023/03/04 00:47:18;;;;;;;12.43;4.35;;;10.30;99.90;;;;;;4942739;28;20026;-92
2023/03/04 00:49:44;;;;;;;8.48;4.13;;;10.30;99.90;;;;;;4943265;28;20034;-93
2023/03/04 00:52:11;;;;;;;10.57;4.57;;;10.30;99.90;;;;;;4945065;28;20027;-91
2023/03/04 00:54:37;;;;;;;10.40;5.50;;;10.30;99.90;;;;;;4944872;28;20054;-92
2023/03/04 00:57:04;;;;;;;13.93;5.43;;;10.30;99.90;;;;;;4948378;28;20026;-91
2023/03/04 00:59:32;;;;;;;13.38;6.18;;;10.30;99.90;;;;;;4946042;28;20026;-92
2023/03/04 01:01:59;;;;;;;7.95;5.00;;;10.20;99.90;;;;;;4945725;28;20078;-92
2023/03/04 01:04:26;;;;;;;12.70;5.65;;;10.20;99.90;;;;;;4945306;28;20057;-91
2023/03/04 01:06:52;;;;;;;9.20;5.25;;;10.20;99.90;;;;;;4945474;28;20027;-92
2023/03/04 01:09:19;;;;;;;16.40;5.95;;;10.20;99.90;;;;;;4945270;28;20054;-92
2023/03/04 01:11:46;;;;;;;8.38;5.60;;;10.20;99.90;;;;;;4946434;28;20110;-92
2023/03/04 01:14:12;;;;;;;8.45;6.22;;;10.20;99.90;;;;;;4946017;28;20042;-92
2023/03/04 01:16:39;;;;;;;10.02;6.18;;;10.20;99.90;;;;;;4945989;28;20030;-93
2023/03/04 01:19:05;;;;;;;7.30;5.57;;;10.20;99.90;;;;;;4945378;28;20094;-92
2023/03/04 01:21:32;;;;;;;12.57;5.15;;;10.20;99.90;;;;;;4945299;28;20027;-92
2023/03/04 01:23:58;;;;;;;8.02;5.45;;;10.20;99.90;;;;;;4945524;28;20035;-92
2023/03/04 01:26:25;;;;;;;10.30;5.13;;;10.20;99.90;;;;;;4944296;28;20031;-93
2023/03/04 01:28:52;;;;;;;11.38;5.38;;;10.30;99.90;;;;;;4946536;28;20492;-92
2023/03/04 01:31:19;;;;;;;12.57;5.22;;;10.30;99.90;;;;;;4944802;28;20051;-92
2023/03/04 01:33:46;;;;;;;18.15;5.80;;;10.30;99.90;;;;;;4958220;28;20039;-92
2023/03/04 01:36:12;;;;;;;19.80;5.68;;;10.30;99.90;;;;;;4945098;28;20037;-93
2023/03/04 01:38:42;;;;;;;13.45;5.38;;;10.30;99.90;;;;;;4942141;28;20058;-92
2023/03/04 01:41:11;;;;;;;12.05;5.22;;;10.20;99.90;;;;;;4944566;28;20031;-93
2023/03/04 01:43:38;;;;;;;12.38;4.90;;;10.20;99.90;;;;;;4944146;28;20030;-92
2023/03/04 01:46:06;;;;;;;9.40;4.80;;;10.20;99.90;;;;;;4943878;28;20026;-92
2023/03/04 01:48:36;;;;;;;13.15;5.38;;;10.20;99.90;;;;;;4944241;28;20495;-92
2023/03/04 01:51:05;;;;;;;16.30;5.32;;;10.10;99.90;;;;;;4943543;28;20125;-93
2023/03/04 01:53:32;;;;;;;6.68;4.85;;;10.10;99.90;;;;;;4943163;28;20043;-93
2023/03/04 01:56:13;;;;;;;14.90;5.88;;;10.00;99.90;;;;;;4943440;28;20054;-93
2023/03/04 01:58:40;;;;;;;6.28;4.90;;;9.90;99.90;;;;;;4959027;28;20064;-92
2023/03/04 02:01:09;;;;;;;11.15;4.97;;;9.90;99.90;;;;;;4943372;28;20031;-92
2023/03/04 02:03:37;;;;;;;20.30;6.38;;;9.70;99.90;;;;;;4943522;28;20049;-91
2023/03/04 02:06:04;;;;;;;7.90;4.75;;;9.70;99.90;;;;;;4943409;28;20081;-91
2023/03/04 02:08:31;;;;;;;11.45;5.57;;;9.70;99.90;;;;;;4943151;28;20051;-92
2023/03/04 02:10:58;;;;;;;7.05;4.97;;;9.60;99.90;;;;;;4943192;28;20078;-93
2023/03/04 02:13:24;;;;;;;7.43;4.70;;;9.50;99.90;;;;;;4943105;28;20285;-91
2023/03/04 02:15:52;;;;;;;9.52;5.00;;;9.40;99.90;;;;;;4944041;28;20031;-92
2023/03/04 02:18:22;;;;;;;7.40;4.75;;;9.30;99.90;;;;;;4945712;28;20031;-92
2023/03/04 02:21:02;;;;;;;7.43;4.70;;;9.30;99.90;;;;;;4946369;28;20050;-93
2023/03/04 02:23:51;;;;;;;9.07;4.60;;;9.30;99.90;;;;;;4946024;28;20134;-91
2023/03/04 02:26:21;;;;;;;8.98;4.55;;;9.20;99.90;;;;;;4946766;28;20365;-92
2023/03/04 02:28:52;;;;;;;13.25;4.75;;;9.10;99.90;;;;;;4946176;28;20031;-91
2023/03/04 02:31:40;;;;;;;8.45;4.70;;;9.10;99.90;;;;;;4945935;28;20043;-92
2023/03/04 02:34:33;;;;;;;8.13;5.15;;;9.00;99.90;;;;;;4945648;28;20044;-93
2023/03/04 02:37:01;;;;;;;5.10;4.60;;;9.10;99.90;;;;;;4884824;29;20056;-92
2023/03/04 02:39:38;;;;;;;9.85;5.10;;;9.00;99.90;;;;;;4885381;29;20498;-93
2023/03/04 02:42:06;;;;;;;8.52;4.75;;;9.00;99.90;;;;;;4905985;29;20044;-92
2023/03/04 02:44:38;;;;;;;6.88;5.50;;;9.00;99.90;;;;;;4913284;29;20028;-93
2023/03/04 02:47:08;;;;;;;14.18;5.03;;;9.00;99.90;;;;;;4921183;29;20103;-92
2023/03/04 02:49:38;;;;;;;9.55;4.53;;;8.90;99.90;;;;;;4905810;29;20111;-92
2023/03/04 02:52:17;;;;;;;8.00;4.53;;;8.80;99.90;;;;;;4887825;29;20024;-92
2023/03/04 02:54:44;;;;;;;10.10;4.13;;;8.80;99.90;;;;;;4905842;29;20100;-91
2023/03/04 02:57:12;;;;;;;5.40;4.65;;;8.70;99.90;;;;;;4933106;29;20060;-91
2023/03/04 02:59:44;;;;;;;7.95;4.75;;;8.60;99.90;;;;;;4904966;29;20032;-91
2023/03/04 03:02:16;;;;;;;7.50;4.45;;;8.50;99.90;;;;;;4904265;29;20119;-92
2023/03/04 03:04:43;;;;;;;5.30;4.75;;;8.50;99.90;;;;;;4887693;29;20035;-92
2023/03/04 03:07:13;;;;;;;10.18;5.15;;;8.40;99.90;;;;;;4918722;29;20047;-93
2023/03/04 03:09:39;;;;;;;12.82;5.35;;;8.40;99.90;;;;;;4903603;29;20044;-92
2023/03/04 03:12:06;;;;;;;5.82;5.03;;;8.30;99.90;;;;;;4920047;29;20035;-91
2023/03/04 03:14:33;;;;;;;10.93;5.60;;;8.30;99.90;;;;;;4945241;28;20400;-93
2023/03/04 03:17:00;;;;;;;9.15;5.00;;;8.20;99.90;;;;;;4964776;28;20034;-92
2023/03/04 03:19:27;;;;;;;13.02;5.70;;;8.10;99.90;;;;;;4963929;28;20077;-91
2023/03/04 03:21:57;;;;;;;8.35;5.35;;;8.10;99.90;;;;;;4963739;28;20031;-92
2023/03/04 03:24:24;;;;;;;6.72;5.30;;;8.10;99.90;;;;;;4965051;28;20034;-92
2023/03/04 03:26:52;;;;;;;7.20;5.55;;;8.10;99.90;;;;;;4965488;28;20030;-92
2023/03/04 03:29:19;;;;;;;10.73;5.47;;;8.00;99.90;;;;;;4966182;28;20030;-93
2023/03/04 03:31:46;;;;;;;6.90;5.70;;;7.90;99.90;;;;;;4965765;28;20022;-93
2023/03/04 03:34:13;;;;;;;5.65;5.00;;;8.00;99.90;;;;;;4965378;28;20030;-92
2023/03/04 03:36:39;;;;;;;7.65;5.88;;;7.90;99.90;;;;;;4964191;28;20546;-92
2023/03/04 03:39:06;;;;;;;8.65;5.38;;;7.90;99.90;;;;;;4961544;28;20026;-91
2023/03/04 03:41:35;;;;;;;7.93;5.88;;;7.90;99.90;;;;;;4963496;28;20031;-92
2023/03/04 03:44:02;;;;;;;6.80;5.95;;;7.90;99.90;;;;;;4963322;28;20065;-90
2023/03/04 03:46:28;;;;;;;8.45;5.97;;;7.90;99.90;;;;;;4962992;28;20495;-91
2023/03/04 03:48:55;;;;;;;7.78;5.32;;;7.80;99.90;;;;;;4963520;28;20392;-92
2023/03/04 03:51:26;;;;;;;5.80;5.30;;;7.80;99.90;;;;;;4963364;28;20026;-92
2023/03/04 03:53:53;;;;;;;7.60;5.40;;;7.70;99.90;;;;;;4962801;28;20046;-92
2023/03/04 03:56:19;;;;;;;6.07;5.57;;;7.70;99.90;;;;;;4970640;28;20082;-91
2023/03/04 03:58:46;;;;;;;6.82;5.70;;;7.70;99.90;;;;;;4981307;28;20039;-93
2023/03/04 04:01:12;;;;;;;7.65;5.75;;;7.60;99.90;;;;;;4975829;28;20027;-93
2023/03/04 04:03:39;;;;;;;10.13;5.35;;;7.60;99.90;;;;;;4962689;28;20034;-92
2023/03/04 04:06:06;;;;;;;8.48;5.40;;;7.50;99.90;;;;;;4963531;28;20018;-93
2023/03/04 04:08:33;;;;;;;6.72;5.57;;;7.50;99.90;;;;;;4963971;28;20050;-93
2023/03/04 04:10:59;;;;;;;7.95;6.07;;;7.40;99.90;;;;;;4964177;28;20487;-93
2023/03/04 04:13:26;;;;;;;6.80;5.80;;;7.40;99.90;;;;;;4961897;28;20029;-91
2023/03/04 04:15:53;;;;;;;12.88;6.95;;;7.30;99.90;;;;;;4943581;28;20053;-93
2023/03/04 04:18:19;;;;;;;8.15;6.57;;;7.30;99.90;;;;;;4943408;28;20026;-92
2023/03/04 04:20:46;;;;;;;11.40;8.50;;;7.30;99.90;;;;;;4942929;28;20026;-91
2023/03/04 04:23:13;;;;;;;14.10;7.30;;;7.30;99.90;;;;;;4943351;28;20041;-93
2023/03/04 04:25:39;;;;;;;13.50;7.88;;;7.30;99.90;;;;;;4943092;28;20035;-92
2023/03/04 04:28:06;;;;;;;11.88;7.28;;;7.20;99.90;;;;;;4942864;28;20085;-91
2023/03/04 04:30:32;;;;;;;8.63;7.32;;;7.20;99.90;;;;;;4943556;28;20087;-92
2023/03/04 04:33:00;;;;;;;7.75;7.03;;;7.10;99.90;;;;;;4943268;28;20037;-92
2023/03/04 04:35:32;;;;;;;15.82;7.57;;;7.00;99.90;;;;;;4943228;28;20035;-92
2023/03/04 04:37:58;;;;;;;13.52;6.72;;;7.00;99.90;;;;;;4943087;28;20487;-92
2023/03/04 04:40:25;;;;;;;9.32;6.00;;;7.00;99.90;;;;;;4944147;28;20035;-91
2023/03/04 04:42:55;;;;;;;10.48;5.90;;;7.10;99.90;;;;;;4943872;28;20042;-92
2023/03/04 04:45:26;;;;;;;8.88;6.07;;;7.00;99.90;;;;;;4956677;28;20037;-92
2023/03/04 04:47:56;;;;;;;7.38;5.75;;;7.00;99.90;;;;;;4963978;28;20038;-92
2023/03/04 04:50:26;;;;;;;8.73;6.35;;;7.00;99.90;;;;;;4962170;28;20108;-91
2023/03/04 04:52:52;;;;;;;10.32;6.18;;;7.00;99.90;;;;;;4962274;28;20034;-92
2023/03/04 04:55:19;;;;;;;10.90;6.32;;;7.00;99.90;;;;;;4961578;28;20064;-92
2023/03/04 04:57:53;;;;;;;14.13;6.95;;;7.00;99.90;;;;;;4963510;28;20031;-93
2023/03/04 05:00:20;;;;;;;;;;;7.00;99.90;;;;;;4979569;28;20539;-92
2023/03/04 05:02:46;;;;;;;19.00;8.40;;;6.90;99.90;;;;;;4958358;28;19906;-92
2023/03/04 05:05:13;;;;;;;13.07;8.10;;;6.90;99.90;;;;;;4974568;28;20034;-91
2023/03/04 05:07:40;;;;;;;9.57;6.68;;;6.90;99.90;;;;;;4974777;28;20027;-91
2023/03/04 05:10:07;;;;;;;7.78;6.85;;;6.90;99.90;;;;;;4974553;28;20480;-91
2023/03/04 05:19:56;;;;;;;6.78;5.88;;;6.90;99.90;;;;;;5519334;23;20046;-92
2023/03/04 05:23:28;;;;;;;;;;;;;;;;;;;;;
2023/03/04 06:14:57;;;;;;;9.00;6.57;;;9.20;99.90;;;;;;4979818;28;20492;-93
2023/03/04 06:17:24;;;;;;;7.13;5.18;;;9.50;99.90;;;;;;4970415;28;20030;-93
2023/03/04 06:19:53;;;;;;;5.72;4.85;;;9.70;99.90;;;;;;4959895;29;20100;-92
2023/03/04 06:22:20;;;;;;;8.25;5.93;;;9.80;99.90;;;;;;4957390;29;20552;-93
2023/03/04 06:24:46;;;;;;;8.68;6.43;;;9.90;99.90;;;;;;4947339;29;20062;-93
2023/03/04 06:27:15;;;;;;;11.57;7.47;;;10.00;99.90;;;;;;4962296;28;20022;-93
2023/03/04 06:29:46;;;;;;;12.13;7.57;;;9.90;99.90;;;;;;4963703;28;20484;-93
2023/03/04 06:36:18;;;;;;;12.50;8.00;;;9.90;99.90;;;;;;4849023;29;20128;-93
2023/03/04 06:38:47;;;;;;;13.02;8.20;;;9.80;99.90;;;;;;4815120;29;20485;-94
2023/03/04 06:41:14;;;;;;;10.32;7.35;;;9.80;99.90;;;;;;4793917;29;20118;-93
2023/03/04 06:43:40;;;;;;;8.32;6.05;;;9.80;99.90;;;;;;4789488;29;20043;-92
2023/03/04 06:46:10;;;;;;;10.73;7.38;;;9.90;99.90;;;;;;4809014;29;20043;-92
2023/03/04 06:48:39;;;;;;;6.88;6.18;;;10.00;99.90;;;;;;4813394;29;20125;-93
2023/03/04 06:51:07;;;;;;;9.30;6.00;;;10.10;99.90;;;;;;4795336;29;20030;-91
2023/03/04 06:53:35;;;;;;;8.13;5.70;;;10.20;99.90;;;;;;4793800;29;20076;-93
2023/03/04 06:56:05;;;;;;;7.60;5.75;;;10.30;99.90;;;;;;4791364;29;20059;-94
2023/03/04 06:59:26;;;;;;;7.53;6.50;;;10.40;99.90;;;;;;4808384;29;20039;-92
2023/03/04 07:02:05;;;;;;;;;;;10.50;99.90;;;;;;4794321;29;20042;-94
2023/03/04 07:05:15;;;;;;;7.88;6.97;;;10.50;99.90;;;;;;4825259;29;19913;-94
2023/03/04 07:08:12;;;;;;;10.77;7.20;;;10.80;99.90;;;;;;4792237;30;20027;-93
2023/03/04 07:14:55;;;;;;;9.15;6.80;;;12.10;99.90;;;;;;4845939;29;20053;-94
2023/03/04 07:17:22;;;;;;;9.07;7.82;;;12.90;99.90;;;;;;4865162;29;20044;-93
2023/03/04 07:20:07;;;;;;;11.45;10.40;;;13.30;99.90;;;;;;4861252;29;20203;-95
2023/03/04 07:22:40;;;;;;;14.02;12.93;;;13.60;99.90;;;;;;4867668;29;20033;-94
2023/03/04 07:25:13;;;;;;;15.13;14.02;;;13.90;99.90;;;;;;4862836;29;20490;-96
2023/03/04 07:31:34;;;;;;;;;;;14.80;99.90;;;;;;5117196;23;20054;-93
2023/03/04 07:40:26;;;;;;;16.20;15.40;;;15.70;99.90;;;;;;5034690;23;20455;-85
2023/03/04 07:42:54;;;;;;;16.17;15.25;;;15.90;99.90;;;;;;4957088;28;20035;-87
2023/03/04 07:45:22;;;;;;;15.00;14.20;;;15.60;99.90;;;;;;4959046;28;20034;-85
2023/03/04 07:47:49;;;;;;;15.05;14.07;;;15.10;99.90;;;;;;4975438;28;20023;-85
2023/03/04 07:50:16;;;;;;;14.77;13.98;;;14.40;99.90;;;;;;4943366;28;20027;-84
2023/03/04 07:52:45;;;;;;;14.48;13.77;;;14.00;99.90;;;;;;4968131;28;20046;-86
2023/03/04 07:55:14;;;;;;;15.10;14.20;;;13.60;99.90;;;;;;4943229;28;20039;-84
2023/03/04 07:57:42;;;;;;;15.55;14.27;;;13.70;99.90;;;;;;4959115;28;20031;-85
2023/03/04 08:00:11;;;;;;;13.70;13.00;;;14.10;99.90;;;;;;4959087;28;20476;-87
2023/03/04 08:02:40;;;;;;;13.85;13.10;;;14.90;99.90;;;;;;4961467;28;20030;-72
2023/03/04 08:05:07;;;;;;;15.98;14.88;;;15.80;99.90;;;;;;4978883;28;20054;-90
2023/03/04 08:07:34;;;;;;;15.20;14.20;;;15.60;99.90;;;;;;4959252;28;20023;-88
2023/03/04 08:10:00;;;;;;;15.90;15.00;;;15.40;99.90;;;;;;4959008;28;20031;-90
2023/03/04 08:12:26;;;;;;;15.85;14.70;;;16.00;99.90;;;;;;4943413;28;20023;-90
2023/03/04 08:14:53;;;;;;;15.50;14.60;;;16.60;99.90;;;;;;4958072;28;20126;-89
2023/03/04 08:17:22;;;;;;;15.27;14.48;;;15.90;99.90;;;;;;4943771;28;20038;-88
2023/03/04 08:19:55;;;;;;;16.60;15.50;;;16.00;99.90;;;;;;4943125;28;20055;-88
2023/03/04 08:22:25;;;;;;;15.88;14.77;;;15.70;99.90;;;;;;4960066;28;20050;-85
2023/03/04 08:24:51;;;;;;;15.75;14.85;;;15.40;99.90;;;;;;4944824;28;20029;-87
2023/03/04 08:27:18;;;;;;;15.98;14.60;;;15.30;99.90;;;;;;4960967;28;20034;-90
2023/03/04 08:29:44;;;;;;;16.05;14.88;;;15.40;99.90;;;;;;4957673;29;20015;-88
2023/03/04 08:32:11;;;;;;;15.20;14.30;;;15.50;99.90;;;;;;4957757;29;20071;-89
2023/03/04 08:34:39;;;;;;;15.65;14.75;;;15.40;99.90;;;;;;4925732;29;20039;-89
2023/03/04 08:37:06;;;;;;;16.83;15.73;;;15.20;99.90;;;;;;4960805;28;20113;-91
2023/03/04 08:39:34;;;;;;;18.25;16.95;;;15.40;99.90;;;;;;4944632;28;20055;-91
2023/03/04 08:42:01;;;;;;;17.60;16.33;;;15.70;99.90;;;;;;4960519;28;20022;-90
2023/03/04 08:44:28;;;;;;;18.30;16.83;;;15.70;99.90;;;;;;4957477;29;20058;-89
2023/03/04 08:46:54;;;;;;;17.80;16.50;;;16.10;99.90;;;;;;4944995;28;20030;-90
2023/03/04 08:49:21;;;;;;;18.00;16.90;;;16.30;99.90;;;;;;4944388;28;20109;-89
2023/03/04 08:51:47;;;;;;;17.92;16.40;;;16.30;99.90;;;;;;4960390;28;20027;-90
2023/03/04 08:54:14;;;;;;;17.33;16.00;;;16.40;99.90;;;;;;4976622;28;20031;-91
2023/03/04 08:56:41;;;;;;;17.33;16.13;;;16.00;99.90;;;;;;4960305;28;20113;-88
2023/03/04 08:59:08;;;;;;;17.42;16.33;;;15.10;99.90;;;;;;4965454;28;20488;-92
2023/03/04 09:01:34;;;;;;;14.20;13.23;;;14.30;99.90;;;;;;4957305;29;20462;-89
2023/03/04 09:04:01;;;;;;;16.15;14.45;;;13.80;99.90;;;;;;4957613;29;20037;-87
2023/03/04 09:06:27;;;;;;;21.60;14.88;;;13.60;99.90;;;;;;4939401;29;20070;-91
2023/03/04 09:11:44;;;;;;;27.75;23.10;;;12.80;99.90;;;;;;5105950;23;20070;-93
2023/03/04 09:14:13;;;;;;;22.08;19.92;;;12.50;99.90;;;;;;4959106;28;20126;-94
2023/03/04 09:16:44;;;;;;;22.52;20.35;;;12.10;99.90;;;;;;4943618;28;20031;-92
2023/03/04 09:19:14;;;;;;;20.70;18.80;;;12.20;99.90;;;;;;4942660;28;20129;-93
2023/03/04 09:21:40;;;;;;;23.70;18.85;;;12.30;99.90;;;;;;4942340;28;20027;-93
2023/03/04 09:24:13;;;;;;;20.23;18.45;;;12.40;99.90;;;;;;4942439;28;20033;-92
2023/03/04 09:26:52;;;;;;;17.50;15.93;;;12.60;99.90;;;;;;4994435;23;20070;-91
2023/03/04 09:29:19;;;;;;;34.22;15.68;;;12.70;99.90;;;;;;4980600;28;20472;-90
2023/03/04 09:31:46;;;;;;;29.65;15.15;;;12.80;99.90;;;;;;4968115;28;20023;-87
2023/03/04 09:34:39;;;;;;;19.70;16.05;;;12.70;99.90;;;;;;4985387;28;20066;-92
2023/03/04 09:37:06;;;;;;;19.73;16.25;;;12.80;99.90;;;;;;4892088;29;20046;-89
2023/03/04 09:39:32;;;;;;;16.23;14.68;;;12.70;99.90;;;;;;4908025;29;20123;-91
2023/03/04 09:42:01;;;;;;;16.63;14.80;;;12.60;99.90;;;;;;4873669;29;20043;-92
2023/03/04 09:44:32;;;;;;;15.43;13.90;;;12.50;99.90;;;;;;4887341;29;20036;-91
2023/03/04 09:47:15;;;;;;;14.20;13.10;;;12.50;99.90;;;;;;4908213;29;20028;-92
2023/03/04 09:49:53;;;;;;;13.13;12.00;;;12.40;99.90;;;;;;4920054;29;20036;-90
2023/03/04 09:52:57;;;;;;;15.35;12.02;;;12.20;99.90;;;;;;4922331;29;20032;-91
2023/03/04 09:55:33;;;;;;;13.23;12.13;;;11.80;99.90;;;;;;4909207;29;20073;-90
2023/03/04 09:58:25;;;;;;;11.52;10.82;;;11.80;99.90;;;;;;4923093;29;20405;-88
2023/03/04 10:00:57;;;;;;;11.80;10.77;;;11.80;99.90;;;;;;4919968;29;20135;-89
2023/03/04 10:03:47;;;;;;;11.70;11.00;;;11.50;99.90;;;;;;4923973;29;20047;-92
2023/03/04 10:09:58;;;;;;;10.85;10.25;;;10.90;99.90;;;;;;4914500;29;20032;-93
2023/03/04 10:13:15;;;;;;;10.30;9.68;;;10.70;99.90;;;;;;4907295;29;20043;-93
2023/03/04 10:15:52;;;;;;;11.18;10.48;;;10.50;99.90;;;;;;4965882;23;20055;-92
2023/03/04 10:18:38;;;;;;;18.85;12.25;;;10.70;99.90;;;;;;4962087;28;20058;-92
2023/03/04 10:21:31;;;;;;;12.48;11.27;;;10.90;99.90;;;;;;4962482;28;20031;-92
2023/03/04 10:24:10;;;;;;;12.30;10.95;;;11.10;99.90;;;;;;4980499;28;20130;-92
2023/03/04 10:26:37;;;;;;;13.45;11.20;;;11.20;99.90;;;;;;4962960;28;20535;-91
2023/03/04 10:29:06;;;;;;;12.00;10.80;;;11.20;99.90;;;;;;4977770;28;20476;-91
2023/03/04 10:31:35;;;;;;;10.85;9.90;;;11.20;99.90;;;;;;4961807;28;20035;-92
2023/03/04 10:34:06;;;;;;;12.30;10.93;;;11.10;99.90;;;;;;4961273;28;20042;-92
2023/03/04 10:36:45;;;;;;;12.23;9.85;;;11.10;99.90;;;;;;4977692;28;20034;-91
2023/03/04 10:39:21;;;;;;;10.40;9.50;;;11.30;99.90;;;;;;4960495;28;20485;-92
2023/03/04 10:42:06;;;;;;;11.18;10.27;;;11.50;99.90;;;;;;4976885;28;20089;-92
2023/03/04 10:44:34;;;;;;;9.30;8.70;;;11.90;99.90;;;;;;4956748;28;20061;-92
2023/03/04 10:47:00;;;;;;;9.68;8.88;;;12.20;99.90;;;;;;4960456;28;20031;-92
2023/03/04 10:49:29;;;;;;;10.43;9.57;;;12.60;99.90;;;;;;4977141;28;20034;-89
2023/03/04 10:52:25;;;;;;;10.35;9.45;;;12.90;99.90;;;;;;4960619;28;20416;-90
2023/03/04 10:54:58;;;;;;;10.23;9.45;;;13.00;99.90;;;;;;4960685;28;20045;-92
2023/03/04 10:57:35;;;;;;;10.82;9.88;;;12.90;99.90;;;;;;4977331;28;20045;-91
2023/03/04 11:00:33;;;;;;;10.85;9.88;;;12.50;99.90;;;;;;4976265;28;20054;-91
2023/03/04 11:03:21;;;;;;;11.25;10.27;;;12.20;99.90;;;;;;4976338;28;20392;-91
2023/03/04 11:05:48;;;;;;;9.52;8.82;;;12.00;99.90;;;;;;4960347;28;20034;-91
2023/03/04 11:08:20;;;;;;;10.20;9.20;;;11.90;99.90;;;;;;4976207;28;20085;-91
2023/03/04 11:10:49;;;;;;;9.02;8.30;;;11.80;99.90;;;;;;4968417;28;20050;-92
2023/03/04 11:13:24;;;;;;;9.18;8.40;;;12.00;99.90;;;;;;4951663;28;20023;-91
2023/03/04 11:15:57;;;;;;;9.38;8.68;;;12.20;99.90;;;;;;4940474;29;20047;-91
2023/03/04 11:18:36;;;;;;;9.43;8.82;;;12.30;99.90;;;;;;4962478;28;20515;-92
2023/03/04 11:21:12;;;;;;;10.50;9.40;;;12.30;99.90;;;;;;4960319;28;20484;-92
2023/03/04 11:23:45;;;;;;;10.15;9.27;;;12.10;99.90;;;;;;4960939;28;20042;-91
2023/03/04 11:26:44;;;;;;;10.48;9.52;;;12.00;99.90;;;;;;4958724;28;20031;-92
2023/03/04 11:29:25;;;;;;;10.77;9.73;;;12.20;99.90;;;;;;4940727;29;20035;-91
2023/03/04 11:32:21;;;;;;;11.30;10.20;;;12.20;99.90;;;;;;4940673;29;20094;-91
2023/03/04 11:35:09;;;;;;;19.10;10.95;;;12.10;99.90;;;;;;4952702;28;20053;-90
2023/03/04 11:38:17;;;;;;;11.65;9.57;;;12.00;99.90;;;;;;4959662;28;20046;-91
2023/03/04 11:40:57;;;;;;;13.63;9.30;;;12.00;99.90;;;;;;4867440;29;20072;-91
2023/03/04 11:43:44;;;;;;;14.80;8.63;;;12.00;99.90;;;;;;4979151;28;20529;-90
2023/03/04 11:46:28;;;;;;;13.05;9.82;;;12.10;99.90;;;;;;4950363;28;20035;-91
2023/03/04 11:49:19;;;;;;;15.40;9.32;;;12.30;99.90;;;;;;4940829;29;20035;-92
2023/03/04 11:52:14;;;;;;;10.40;8.90;;;12.50;99.90;;;;;;4949007;28;20018;-91
2023/03/04 11:55:07;;;;;;;10.85;9.75;;;12.70;99.90;;;;;;4959063;28;20038;-90
2023/03/04 11:58:01;;;;;;;9.82;8.88;;;12.70;99.90;;;;;;4949414;28;20027;-92
2023/03/04 12:00:52;;;;;;;10.70;9.20;;;12.50;99.90;;;;;;4943067;29;20118;-92
2023/03/04 12:04:01;;;;;;;8.30;7.53;;;12.30;99.90;;;;;;4940136;29;20039;-92
2023/03/04 12:06:46;;;;;;;11.63;7.88;;;12.40;99.90;;;;;;4947875;28;20445;-90
2023/03/04 12:09:18;;;;;;;;;;;12.50;99.90;;;;;;4956265;28;20023;-92
2023/03/04 12:12:06;;;;;;;8.35;7.65;;;12.40;99.90;;;;;;4940680;29;20415;-92
2023/03/04 12:14:41;;;;;;;13.95;9.02;;;12.30;99.90;;;;;;4939254;29;20050;-90
2023/03/04 12:17:33;;;;;;;7.78;7.07;;;12.30;99.90;;;;;;4955685;29;20067;-91
2023/03/04 12:20:21;;;;;;;7.28;6.50;;;12.30;99.90;;;;;;4939673;29;20078;-92
2023/03/04 12:22:59;;;;;;;9.38;8.40;;;12.00;99.90;;;;;;4955606;28;20412;-91
2023/03/04 12:25:44;;;;;;;8.20;7.40;;;12.10;99.90;;;;;;4958881;28;20176;-90
2023/03/04 12:28:15;;;;;;;;;;;12.50;99.90;;;;;;4951070;28;20031;-92
2023/03/04 12:31:00;;;;;;;8.35;7.65;;;12.70;99.90;;;;;;4945561;28;19965;-89
2023/03/04 12:33:37;;;;;;;;;;;12.60;99.90;;;;;;4950584;28;20035;-91
2023/03/04 12:36:47;;;;;;;10.10;8.00;;;12.40;99.90;;;;;;4953545;28;19962;-91
2023/03/04 12:39:39;;;;;;;10.57;9.27;;;12.30;99.90;;;;;;4951510;28;20070;-91
2023/03/04 12:42:34;;;;;;;13.38;11.50;;;12.50;99.90;;;;;;4944934;29;20042;-91
2023/03/04 12:45:26;;;;;;;10.90;9.93;;;12.40;99.90;;;;;;4925279;29;20129;-92
2023/03/04 12:48:08;;;;;;;10.07;9.18;;;12.50;99.90;;;;;;4939275;29;20027;-91
2023/03/04 12:51:03;;;;;;;9.30;8.38;;;12.40;99.90;;;;;;4946866;29;20031;-91
2023/03/04 12:53:42;;;;;;;8.95;8.10;;;12.20;99.90;;;;;;4947573;28;20074;-91
2023/03/04 12:56:42;;;;;;;9.50;8.60;;;11.90;99.90;;;;;;4958149;28;20027;-91
2023/03/04 12:59:35;;;;;;;9.75;8.77;;;11.80;99.90;;;;;;4931705;29;20043;-91
2023/03/04 13:02:20;;;;;;;9.95;8.98;;;11.60;99.90;;;;;;4972868;28;20031;-92
2023/03/04 13:05:28;;;;;;;9.75;8.85;;;11.60;99.90;;;;;;4944846;29;20035;-91
2023/03/04 13:08:03;;;;;;;9.68;8.63;;;11.30;99.90;;;;;;4954817;29;20031;-91
2023/03/04 13:10:29;;;;;;;8.88;8.18;;;11.40;99.90;;;;;;4955079;28;20049;-92
2023/03/04 13:12:58;;;;;;;8.13;7.53;;;11.30;99.90;;;;;;4961169;28;20085;-92
2023/03/04 13:15:25;;;;;;;9.23;7.90;;;11.20;99.90;;;;;;4957775;28;20555;-91
2023/03/04 13:17:54;;;;;;;8.48;7.85;;;11.10;99.90;;;;;;4954758;29;20035;-91
2023/03/04 13:20:37;;;;;;;12.15;7.97;;;10.90;99.90;;;;;;4956843;28;20037;-90
2023/03/04 13:23:27;;;;;;;8.55;7.80;;;10.80;99.90;;;;;;4951061;29;20023;-90
2023/03/04 13:25:56;;;;;;;9.65;8.43;;;10.80;99.90;;;;;;4946981;29;20035;-92
2023/03/04 13:28:28;;;;;;;12.32;9.45;;;10.70;99.90;;;;;;4954511;29;20033;-91
2023/03/04 13:30:55;;;;;;;14.68;9.32;;;10.80;99.90;;;;;;4954857;29;20036;-93
2023/03/04 13:33:22;;;;;;;11.20;9.63;;;10.80;99.90;;;;;;4960713;28;20503;-92
2023/03/04 13:36:16;;;;;;;9.90;8.73;;;10.90;99.90;;;;;;4944605;28;20070;-92
2023/03/04 13:39:12;;;;;;;8.88;7.75;;;11.10;99.90;;;;;;4948758;28;20030;-92
2023/03/04 13:41:55;;;;;;;8.63;7.38;;;11.20;99.90;;;;;;4943120;29;20042;-92
2023/03/04 13:44:42;;;;;;;8.73;7.75;;;11.30;99.90;;;;;;4938893;29;20039;-90
2023/03/04 13:47:29;;;;;;;9.75;7.22;;;11.30;99.90;;;;;;4938690;29;20028;-92
2023/03/04 13:50:34;;;;;;;7.18;5.70;;;11.60;99.90;;;;;;4938719;29;20086;-93
2023/03/04 13:53:24;;;;;;;8.48;7.05;;;11.80;99.90;;;;;;4944833;29;20042;-91
2023/03/04 13:56:09;;;;;;;9.93;7.85;;;11.70;99.90;;;;;;4954347;28;20054;-92
2023/03/04 13:58:38;;;;;;;10.27;7.60;;;11.70;99.90;;;;;;4964603;28;20495;-91
2023/03/04 14:01:06;;;;;;;8.65;7.30;;;12.00;99.90;;;;;;4959303;28;20019;-91
2023/03/04 14:03:34;;;;;;;10.27;7.63;;;12.10;99.90;;;;;;4957216;28;20032;-90
2023/03/04 14:06:22;;;;;;;7.90;6.40;;;12.10;99.90;;;;;;4954748;28;20113;-93
2023/03/04 14:08:52;;;;;;;7.75;7.03;;;12.10;99.90;;;;;;4957680;28;20046;-91
2023/03/04 14:11:35;;;;;;;7.95;7.25;;;12.20;99.90;;;;;;4942867;29;20027;-92
2023/03/04 14:14:06;;;;;;;7.13;6.72;;;12.20;99.90;;;;;;4942559;28;20134;-92
2023/03/04 14:16:39;;;;;;;7.80;7.40;;;12.20;99.90;;;;;;4960928;28;20034;-91
2023/03/04 14:19:12;;;;;;;8.27;7.47;;;12.20;99.90;;;;;;4952610;28;20038;-93
2023/03/04 14:21:45;;;;;;;8.02;7.43;;;12.10;99.90;;;;;;4945114;28;20764;-92
2023/03/04 14:24:14;;;;;;;8.75;6.75;;;11.90;99.90;;;;;;4964104;28;20500;-92
2023/03/04 14:26:41;;;;;;;6.35;5.93;;;11.80;99.90;;;;;;4980116;28;20061;-92
2023/03/04 14:29:22;;;;;;;7.28;6.70;;;11.70;99.90;;;;;;4980190;28;20035;-92
2023/03/04 14:31:57;;;;;;;7.30;6.70;;;11.70;99.90;;;;;;4966600;28;20393;-93
2023/03/04 14:34:32;;;;;;;7.00;6.50;;;11.80;99.90;;;;;;4961580;28;20063;-93
2023/03/04 14:36:59;;;;;;;7.43;6.88;;;11.70;99.90;;;;;;4951550;28;20061;-92
2023/03/04 14:39:29;;;;;;;7.38;6.78;;;11.80;99.90;;;;;;4954805;28;20031;-93